Maine-Soroa, Niger
Current Conditions -  °F | °C
As of 12:00 AM on Sunday 21 Dec 2014 (Local Time) from FTTJ Reporting Station
Clear Clear  
Wind Chill: 73°   Ceiling: Unl
Heat Index: 73°   Visibility: 6mi
Dew Point: 46°   Wind: 8mph
Humidity: 38%   Direction: 20°NNE
Pressure: 29.91"   Gusts: NA
Location:  13.21°N, 12.03°E
Report Text: FTTJ 202300Z 02007KT CAVOK 23/08 Q1013 NOSIG
Loading
Personal Weather Stations






























Interactive Weather Map New forecast layout! Learn more

10-Day Weather Forecast

Advertisements
Track Severe Weather on mobile